Impacts TAF Board
For situational awareness. Not to be used for flight planning purposes.
IDs:

KTUL - Tulsa Intl Arpt, OK, US

Issued at 0520 UTC 18 Jan 2022
Updated at 0954 UTC 18 Jan 2022
Potential Impact None Slight Moderate High
Time<<18/22Z 18/23Z 19/00Z 19/01Z 19/02Z 19/03Z 19/04Z 19/05Z 19/06Z 19/07Z 19/08Z 19/09Z 19/10Z>>
Type PRVL PRVL PRVL PRVL PRVL PRVL PRVL PRVL
VIS >6 >6 >6 >6 >6 >6 >6 >6
CIG -- -- -- -- -- -- -- --
Cover SCT SCT SCT SCT SCT SCT SCT SCT
FltCat VFR VFR VFR VFR VFR VFR VFR VFR
WX -- -- -- -- -- -- -- --
WDir 180 180 140 140 140 140 140 140
WSpd 10 10 4 4 4 4 4 4
WGst 18 18 -- -- -- -- -- --
WSHgt -- -- -- -- -- -- -- --
WSDir -- -- -- -- -- -- -- --
WSSpd -- -- -- -- -- -- -- --
R08/26
XWnd -10 -10 -3 -3 -3 -3 -3 -3 0 0 0 0 0
XGst -18 -18 -- -- -- -- -- -- -- -- -- -- --
HWnd -0 -0 3 3 3 3 3 3 0 0 0 0 0
HGst -0 -0 -- -- -- -- -- -- -- -- -- -- --
R18/36
XWnd 1 1 3 3 3 3 3 3 0 0 0 0 0
XGst 1 1 -- -- -- -- -- -- -- -- -- -- --
HWnd 10 10 3 3 3 3 3 3 0 0 0 0 0
HGst 18 18 -- -- -- -- -- -- -- -- -- -- --
Raw TAF
KTUL 180520Z 1806/1906 18009KT P6SM SCT250 WS015/20040KT
  FM181300 18010G18KT P6SM SCT250
  FM190000 14004KT P6SM SCT250


METAR Board
Radar Display
Forecast Discussion
For situational awareness. Not to be used for flight planning purposes.